Time;durP1;ratioP1;P1;durP2;ratioP2;P2;SDS_P1;SDS_P2;PMS_P1;PMS_P2;Temp;Humidity;BMP_temperature;BMP_pressure;BME280_temperature;BME280_humidity;BME280_pressure;Samples;Min_cycle;Max_cycle;Signal;HPM_P1;HPM_P2
2023/08/03 00:00:29;;;;;;;1.55;1.45;;;21.60;99.90;;;;;;5149624;27;20194;-66
2023/08/03 00:02:56;;;;;;;2.25;1.50;;;21.60;99.90;;;;;;5146106;27;20199;-66
2023/08/03 00:05:24;;;;;;;2.03;1.58;;;21.60;99.90;;;;;;5144738;27;20242;-67
2023/08/03 00:07:51;;;;;;;1.52;1.42;;;21.60;99.90;;;;;;5132490;27;20548;-65
2023/08/03 00:10:21;;;;;;;3.13;1.40;;;21.60;99.90;;;;;;5146793;27;20206;-65
2023/08/03 00:12:50;;;;;;;3.05;1.80;;;21.50;99.90;;;;;;5147477;27;20246;-66
2023/08/03 00:15:18;;;;;;;2.58;1.30;;;21.50;99.90;;;;;;5149528;27;20197;-65
2023/08/03 00:17:45;;;;;;;1.83;1.70;;;21.50;99.90;;;;;;5126559;27;20285;-65
2023/08/03 00:20:12;;;;;;;1.67;1.58;;;21.50;99.90;;;;;;5145430;27;20218;-65
2023/08/03 00:22:39;;;;;;;1.85;1.75;;;21.50;99.90;;;;;;5131635;27;20263;-66
2023/08/03 00:25:07;;;;;;;1.67;1.58;;;21.50;99.90;;;;;;5142746;27;20190;-66
2023/08/03 00:27:35;;;;;;;2.42;1.52;;;21.40;99.90;;;;;;5147568;27;20297;-66
2023/08/03 00:30:02;;;;;;;1.60;1.50;;;21.50;99.90;;;;;;5150664;27;20646;-66
2023/08/03 00:32:30;;;;;;;1.60;1.50;;;21.40;99.90;;;;;;5148054;27;20252;-66
2023/08/03 00:34:58;;;;;;;2.13;1.75;;;21.40;99.90;;;;;;5127509;27;20203;-66
2023/08/03 00:37:25;;;;;;;2.05;1.75;;;21.40;99.90;;;;;;5154740;27;20274;-66
2023/08/03 00:39:53;;;;;;;2.33;1.52;;;21.40;99.90;;;;;;5152437;27;20384;-66
2023/08/03 00:42:20;;;;;;;1.73;1.63;;;21.40;99.90;;;;;;5144240;27;20626;-67
2023/08/03 00:44:48;;;;;;;2.03;1.40;;;21.30;99.90;;;;;;5153142;27;20245;-66
2023/08/03 00:47:15;;;;;;;4.80;1.98;;;21.30;99.90;;;;;;5153373;27;20186;-66
2023/08/03 00:49:43;;;;;;;2.08;1.60;;;21.30;99.90;;;;;;5129401;27;20203;-66
2023/08/03 00:52:10;;;;;;;1.85;1.60;;;21.30;99.90;;;;;;5151279;27;20549;-65
2023/08/03 00:54:37;;;;;;;1.45;1.35;;;21.30;99.90;;;;;;5133955;27;20198;-65
2023/08/03 00:57:06;;;;;;;1.90;1.80;;;21.30;99.90;;;;;;5147115;27;20194;-66
2023/08/03 00:59:34;;;;;;;4.20;1.52;;;21.20;99.90;;;;;;5152093;27;20194;-66
2023/08/03 01:02:03;;;;;;;1.92;1.63;;;21.20;99.90;;;;;;5149110;27;20289;-66
2023/08/03 01:04:30;;;;;;;1.85;1.58;;;21.20;99.90;;;;;;5143195;27;20694;-66
2023/08/03 01:06:57;;;;;;;1.80;1.70;;;21.20;99.90;;;;;;5146287;27;20190;-66
2023/08/03 01:09:24;;;;;;;3.00;1.48;;;21.20;99.90;;;;;;5151573;27;20200;-65
2023/08/03 01:11:51;;;;;;;1.75;1.05;;;21.20;99.90;;;;;;5145781;27;20191;-65
2023/08/03 01:14:18;;;;;;;1.42;1.42;;;21.10;99.90;;;;;;5142712;27;20263;-66
2023/08/03 01:16:46;;;;;;;2.03;1.67;;;21.20;99.90;;;;;;5151697;27;20605;-66
2023/08/03 01:19:15;;;;;;;1.52;1.40;;;21.10;99.90;;;;;;5153342;27;20232;-65
2023/08/03 01:21:47;;;;;;;1.90;1.60;;;21.10;99.90;;;;;;5143415;27;20210;-66
2023/08/03 01:24:16;;;;;;;1.60;1.50;;;21.10;99.90;;;;;;5133260;27;20226;-66
2023/08/03 01:26:44;;;;;;;2.50;1.55;;;21.10;99.90;;;;;;5134442;27;20191;-66
2023/08/03 01:29:11;;;;;;;2.72;1.85;;;21.10;99.90;;;;;;5138951;27;20239;-66
2023/08/03 01:31:39;;;;;;;2.95;1.40;;;21.10;99.90;;;;;;5152866;27;20193;-66
2023/08/03 01:34:08;;;;;;;3.88;1.73;;;21.10;99.90;;;;;;5150093;27;20190;-66
2023/08/03 01:36:35;;;;;;;2.00;1.40;;;21.10;99.90;;;;;;5122006;27;20203;-66
2023/08/03 01:39:09;;;;;;;1.73;1.63;;;21.10;99.90;;;;;;5127026;27;20195;-66
2023/08/03 01:41:41;;;;;;;1.88;1.60;;;21.10;99.90;;;;;;5132376;27;20224;-66
2023/08/03 01:44:22;;;;;;;3.05;1.80;;;21.20;99.90;;;;;;5144913;27;20183;-66
2023/08/03 01:46:50;;;;;;;5.55;2.10;;;21.10;99.90;;;;;;5130284;27;20310;-65
2023/08/03 01:49:17;;;;;;;2.22;1.60;;;21.10;99.90;;;;;;5153475;27;20225;-65
2023/08/03 01:51:44;;;;;;;1.70;1.60;;;21.10;99.90;;;;;;5146140;27;20591;-66
2023/08/03 01:54:12;;;;;;;2.03;1.48;;;21.10;99.90;;;;;;5130982;27;20206;-66
2023/08/03 01:56:42;;;;;;;2.78;1.77;;;21.10;99.90;;;;;;5151737;27;20243;-66
2023/08/03 01:59:09;;;;;;;3.00;1.70;;;21.10;99.90;;;;;;5147508;27;20654;-66
2023/08/03 02:01:36;;;;;;;1.73;1.63;;;21.10;99.90;;;;;;5124850;27;20214;-66
2023/08/03 02:04:03;;;;;;;2.00;1.75;;;21.10;99.90;;;;;;5150324;27;20249;-66
2023/08/03 02:06:31;;;;;;;2.05;1.60;;;21.10;99.90;;;;;;5133615;27;20723;-66
2023/08/03 02:08:59;;;;;;;1.63;1.52;;;21.10;99.90;;;;;;5125696;27;20203;-66
2023/08/03 02:11:28;;;;;;;3.00;1.55;;;21.10;99.90;;;;;;5132998;27;20255;-63
2023/08/03 02:13:56;;;;;;;1.90;1.50;;;21.10;99.90;;;;;;5132457;27;20209;-66
2023/08/03 02:16:23;;;;;;;4.97;1.70;;;21.10;99.90;;;;;;5121098;27;20201;-66
2023/08/03 02:18:50;;;;;;;1.65;1.55;;;21.10;99.90;;;;;;5133849;27;20236;-66
2023/08/03 02:21:17;;;;;;;1.58;1.23;;;21.10;99.90;;;;;;5133339;27;20212;-67
2023/08/03 02:23:44;;;;;;;1.35;1.25;;;21.10;99.90;;;;;;5145737;27;20257;-66
2023/08/03 02:26:12;;;;;;;1.40;1.30;;;21.10;99.90;;;;;;5132641;27;20195;-66
2023/08/03 02:28:39;;;;;;;1.10;1.10;;;21.20;99.90;;;;;;5152827;27;20511;-66
2023/08/03 02:31:07;;;;;;;1.60;1.50;;;21.20;99.90;;;;;;5147768;27;20688;-66
2023/08/03 02:33:42;;;;;;;2.90;1.90;;;21.10;99.90;;;;;;5127017;27;20201;-66
2023/08/03 02:36:10;;;;;;;2.20;1.65;;;21.10;99.90;;;;;;5131429;27;20206;-66
2023/08/03 02:38:38;;;;;;;1.45;1.35;;;21.10;99.90;;;;;;5129191;27;20525;-67
2023/08/03 02:41:06;;;;;;;1.60;1.50;;;21.10;99.90;;;;;;5132412;27;20221;-66
2023/08/03 02:43:34;;;;;;;2.85;2.03;;;21.10;99.90;;;;;;5129081;27;20255;-65
2023/08/03 02:46:03;;;;;;;1.77;1.67;;;21.10;99.90;;;;;;5119387;27;20209;-65
2023/08/03 02:48:33;;;;;;;2.22;1.60;;;21.10;99.90;;;;;;5129471;27;20311;-66
2023/08/03 02:51:04;;;;;;;1.58;1.50;;;21.10;99.90;;;;;;5127590;27;20271;-67
2023/08/03 02:53:35;;;;;;;3.65;1.90;;;21.00;99.90;;;;;;5127265;27;20267;-67
2023/08/03 02:56:04;;;;;;;2.17;1.50;;;21.00;99.90;;;;;;5132355;27;20310;-67
2023/08/03 02:58:37;;;;;;;2.75;1.35;;;21.00;99.90;;;;;;5133073;27;20198;-66
2023/08/03 03:01:12;;;;;;;1.90;1.80;;;21.00;99.90;;;;;;5122327;27;20675;-67
2023/08/03 03:03:41;;;;;;;1.70;1.60;;;21.00;99.90;;;;;;5124185;27;20215;-66
2023/08/03 03:06:08;;;;;;;4.68;1.83;;;20.90;99.90;;;;;;5149277;27;20183;-66
2023/08/03 03:08:39;;;;;;;2.75;1.77;;;20.90;99.90;;;;;;5144758;27;20222;-66
2023/08/03 03:11:07;;;;;;;1.60;1.50;;;20.90;99.90;;;;;;5129995;27;20557;-66
2023/08/03 03:13:34;;;;;;;1.63;1.50;;;20.90;99.90;;;;;;5145665;27;20190;-66
2023/08/03 03:16:01;;;;;;;1.92;1.65;;;20.90;99.90;;;;;;5144179;27;20210;-66
2023/08/03 03:18:28;;;;;;;1.85;1.75;;;20.90;99.90;;;;;;5151737;27;20253;-67
2023/08/03 03:20:57;;;;;;;1.55;1.50;;;20.90;99.90;;;;;;5150217;27;20425;-67
2023/08/03 03:23:24;;;;;;;1.73;1.55;;;20.90;99.90;;;;;;5136211;27;20210;-66
2023/08/03 03:25:51;;;;;;;1.50;1.40;;;20.90;99.90;;;;;;5132212;27;20256;-67
2023/08/03 03:28:18;;;;;;;1.30;1.20;;;20.90;99.90;;;;;;5132608;27;20198;-67
2023/08/03 03:30:48;;;;;;;1.15;1.15;;;20.90;99.90;;;;;;5127479;27;20206;-66
2023/08/03 03:33:15;;;;;;;1.35;1.35;;;20.90;99.90;;;;;;5130185;27;20186;-66
2023/08/03 03:35:48;;;;;;;1.20;1.20;;;20.90;99.90;;;;;;5128262;27;20194;-67
2023/08/03 03:38:19;;;;;;;1.48;1.38;;;21.00;99.90;;;;;;5126032;27;20202;-66
2023/08/03 03:40:48;;;;;;;1.48;1.38;;;21.00;99.90;;;;;;5125539;27;20202;-66
2023/08/03 03:43:15;;;;;;;1.38;1.27;;;21.00;99.90;;;;;;5131528;27;20561;-66
2023/08/03 03:45:43;;;;;;;1.30;1.27;;;21.00;99.90;;;;;;5127351;27;20199;-67
2023/08/03 03:48:13;;;;;;;1.25;1.25;;;21.00;99.90;;;;;;5149229;27;20665;-66
2023/08/03 03:50:40;;;;;;;1.48;1.38;;;21.00;99.90;;;;;;5131225;27;20207;-66
2023/08/03 03:53:07;;;;;;;1.55;1.45;;;21.00;99.90;;;;;;5141519;27;20258;-66
2023/08/03 03:55:38;;;;;;;1.83;1.55;;;21.00;99.90;;;;;;5130197;27;20681;-66
2023/08/03 03:58:06;;;;;;;2.08;1.30;;;21.00;99.90;;;;;;5151037;27;20209;-66
2023/08/03 04:00:39;;;;;;;2.00;1.45;;;21.00;99.90;;;;;;5127824;27;20243;-66
2023/08/03 04:03:08;;;;;;;1.88;1.63;;;21.10;99.90;;;;;;5130255;27;20210;-66
2023/08/03 04:05:36;;;;;;;1.80;1.70;;;21.10;99.90;;;;;;5146227;27;20688;-67
2023/08/03 04:08:04;;;;;;;1.85;1.73;;;21.10;99.90;;;;;;5149285;27;20239;-67
2023/08/03 04:10:32;;;;;;;1.63;1.52;;;21.10;99.90;;;;;;5150959;27;20273;-67
2023/08/03 04:13:01;;;;;;;1.60;1.50;;;21.10;99.90;;;;;;5130906;27;20661;-66
2023/08/03 04:15:28;;;;;;;5.25;1.70;;;21.10;99.90;;;;;;5134106;27;20202;-66
2023/08/03 04:17:55;;;;;;;1.63;1.52;;;21.10;99.90;;;;;;5135667;27;20541;-66
2023/08/03 04:20:28;;;;;;;1.73;1.60;;;21.10;99.90;;;;;;5128783;27;20198;-66
2023/08/03 04:22:55;;;;;;;4.10;1.65;;;21.10;99.90;;;;;;5126571;27;20222;-66
2023/08/03 04:25:25;;;;;;;1.55;1.45;;;21.10;99.90;;;;;;5134639;27;20207;-67
2023/08/03 04:28:01;;;;;;;1.17;1.17;;;21.10;99.90;;;;;;5133321;27;20209;-66
2023/08/03 04:30:32;;;;;;;2.15;1.40;;;21.20;99.90;;;;;;5135288;27;20819;-66
2023/08/03 04:33:03;;;;;;;1.40;1.30;;;21.20;99.90;;;;;;5133950;27;20226;-66
2023/08/03 04:35:33;;;;;;;1.20;1.10;;;21.20;99.90;;;;;;5124714;27;20219;-67
2023/08/03 04:38:11;;;;;;;0.95;0.95;;;21.20;99.90;;;;;;5154248;27;20213;-66
2023/08/03 04:40:43;;;;;;;3.05;1.23;;;21.20;99.90;;;;;;5127723;27;20198;-67
2023/08/03 04:43:11;;;;;;;1.25;1.17;;;21.20;99.90;;;;;;5130539;27;20297;-67
2023/08/03 04:45:41;;;;;;;2.70;1.15;;;21.20;99.90;;;;;;5134786;27;20355;-67
2023/08/03 04:48:08;;;;;;;1.75;1.48;;;21.30;99.90;;;;;;5131335;27;20190;-66
2023/08/03 04:50:35;;;;;;;1.60;1.50;;;21.30;99.90;;;;;;5127340;27;20198;-66
2023/08/03 04:53:03;;;;;;;1.40;1.30;;;21.30;99.90;;;;;;5135086;27;20210;-67
2023/08/03 04:55:30;;;;;;;1.75;1.13;;;21.30;99.90;;;;;;5131060;27;20211;-67
2023/08/03 04:57:57;;;;;;;2.35;1.20;;;21.30;99.90;;;;;;5126312;27;20199;-66
2023/08/03 05:00:28;;;;;;;1.63;1.52;;;21.30;99.90;;;;;;5132708;27;20206;-66
2023/08/03 05:02:57;;;;;;;1.50;1.40;;;21.30;99.90;;;;;;5150789;27;20202;-67
2023/08/03 05:05:24;;;;;;;1.50;1.40;;;21.30;99.90;;;;;;5141561;27;20355;-66
2023/08/03 05:07:51;;;;;;;1.33;1.33;;;21.40;99.90;;;;;;5132995;27;20217;-66
2023/08/03 05:10:22;;;;;;;1.10;1.10;;;21.30;99.90;;;;;;5133620;27;20241;-66
2023/08/03 05:12:49;;;;;;;1.60;1.50;;;21.30;99.90;;;;;;5138949;27;20191;-67
2023/08/03 05:15:17;;;;;;;1.52;1.42;;;21.30;99.90;;;;;;5133164;27;20202;-67
2023/08/03 05:17:49;;;;;;;1.42;1.33;;;21.30;99.90;;;;;;5134576;27;20198;-66
2023/08/03 05:20:17;;;;;;;2.28;1.63;;;21.30;99.90;;;;;;5122638;27;20194;-66
2023/08/03 05:22:44;;;;;;;1.48;1.38;;;21.30;99.90;;;;;;5142953;27;20291;-66
2023/08/03 05:25:11;;;;;;;1.08;1.08;;;21.40;99.90;;;;;;5151247;27;20670;-66
2023/08/03 05:27:39;;;;;;;2.47;1.70;;;21.40;99.90;;;;;;5150392;27;20202;-66
2023/08/03 05:30:08;;;;;;;1.90;1.70;;;21.40;99.90;;;;;;5128899;27;20287;-66
2023/08/03 05:32:35;;;;;;;1.58;1.48;;;21.40;99.90;;;;;;5134250;27;20243;-66
2023/08/03 05:35:04;;;;;;;2.25;1.20;;;21.40;99.90;;;;;;5144122;27;20191;-66
2023/08/03 05:37:31;;;;;;;1.42;1.42;;;21.50;99.90;;;;;;5153244;27;20306;-66
2023/08/03 05:39:58;;;;;;;1.17;1.13;;;21.50;99.90;;;;;;5133387;27;20194;-66
2023/08/03 05:42:30;;;;;;;1.40;1.33;;;21.50;99.90;;;;;;5142293;27;20207;-66
2023/08/03 05:44:57;;;;;;;1.30;1.20;;;21.50;99.90;;;;;;5136359;27;20264;-67
2023/08/03 05:47:24;;;;;;;2.70;1.40;;;21.60;99.90;;;;;;5147152;27;20301;-67
2023/08/03 05:49:52;;;;;;;1.65;1.52;;;21.60;99.90;;;;;;5124373;27;20603;-65
2023/08/03 05:52:20;;;;;;;1.30;1.20;;;21.60;99.90;;;;;;5150191;27;20662;-66
2023/08/03 05:54:49;;;;;;;1.67;1.50;;;21.60;99.90;;;;;;5151786;27;20187;-66
2023/08/03 05:57:18;;;;;;;1.35;1.25;;;21.50;99.90;;;;;;5139535;27;20235;-66
2023/08/03 05:59:48;;;;;;;1.40;1.30;;;21.50;99.90;;;;;;5151417;27;20243;-66
2023/08/03 06:02:32;;;;;;;1.42;1.33;;;21.40;99.90;;;;;;5151843;27;20183;-66
2023/08/03 06:04:59;;;;;;;1.60;1.50;;;21.40;99.90;;;;;;5141815;27;20230;-65
2023/08/03 06:07:28;;;;;;;1.27;1.27;;;21.40;99.90;;;;;;5150550;27;20222;-65
2023/08/03 06:09:55;;;;;;;1.33;1.25;;;21.30;99.90;;;;;;5139723;27;20540;-63
2023/08/03 06:12:22;;;;;;;1.27;0.90;;;21.30;99.90;;;;;;5135241;27;20194;-64
2023/08/03 06:14:50;;;;;;;1.50;1.40;;;21.30;99.90;;;;;;5140931;27;20195;-64
2023/08/03 06:17:22;;;;;;;1.50;1.40;;;21.30;99.90;;;;;;5143953;27;20267;-64
2023/08/03 06:19:49;;;;;;;1.50;1.23;;;21.40;99.90;;;;;;5143065;27;20596;-63
2023/08/03 06:22:19;;;;;;;1.38;1.38;;;21.40;99.90;;;;;;5131376;27;20267;-63
2023/08/03 06:24:48;;;;;;;1.50;1.40;;;21.40;99.90;;;;;;5129511;27;20210;-62
2023/08/03 06:27:16;;;;;;;1.23;1.10;;;21.40;99.90;;;;;;5124415;27;20190;-63
2023/08/03 06:29:44;;;;;;;1.38;1.27;;;21.40;99.90;;;;;;5150477;27;20199;-63
2023/08/03 06:32:18;;;;;;;1.17;1.17;;;21.50;99.90;;;;;;5150042;27;20201;-63
2023/08/03 06:34:45;;;;;;;1.17;1.17;;;21.50;99.90;;;;;;5141749;27;20189;-62
2023/08/03 06:37:12;;;;;;;1.35;1.30;;;21.50;99.90;;;;;;5132108;27;20198;-63
2023/08/03 06:39:39;;;;;;;1.58;1.30;;;21.50;99.90;;;;;;5147869;27;20263;-63
2023/08/03 06:42:08;;;;;;;1.80;1.70;;;21.50;99.90;;;;;;5142289;27;20530;-63
2023/08/03 06:44:36;;;;;;;1.70;1.60;;;21.50;99.90;;;;;;5143353;27;20283;-63
2023/08/03 06:47:03;;;;;;;2.50;1.88;;;21.60;99.90;;;;;;5142965;27;20205;-63
2023/08/03 06:49:30;;;;;;;1.90;1.80;;;21.70;99.90;;;;;;5117240;27;20203;-63
2023/08/03 06:51:57;;;;;;;1.95;1.52;;;21.70;99.90;;;;;;5148583;27;20198;-63
2023/08/03 06:54:24;;;;;;;2.85;1.58;;;21.80;99.90;;;;;;5146599;27;20179;-67
2023/08/03 06:56:51;;;;;;;1.60;1.50;;;21.80;99.90;;;;;;5142475;27;20210;-66
2023/08/03 06:59:21;;;;;;;1.73;1.63;;;21.80;99.90;;;;;;5135443;27;20265;-66
2023/08/03 07:01:49;;;;;;;2.42;2.00;;;21.80;99.90;;;;;;5130860;27;20206;-65
2023/08/03 07:04:17;;;;;;;1.60;1.40;;;21.80;99.90;;;;;;5145988;27;20203;-66
2023/08/03 07:06:47;;;;;;;4.40;1.60;;;21.90;99.90;;;;;;5144906;27;20178;-66
2023/08/03 07:09:14;;;;;;;1.40;1.27;;;22.00;99.90;;;;;;5148387;27;20725;-66
2023/08/03 07:11:41;;;;;;;3.00;1.40;;;22.00;99.90;;;;;;5149351;27;20193;-66
2023/08/03 07:14:09;;;;;;;1.58;1.48;;;22.00;99.90;;;;;;5133439;27;20638;-66
2023/08/03 07:16:38;;;;;;;1.30;1.27;;;22.00;99.90;;;;;;5143699;27;20282;-66
2023/08/03 07:19:06;;;;;;;1.27;1.27;;;22.00;99.90;;;;;;5143641;27;20198;-66
2023/08/03 07:21:34;;;;;;;1.63;1.40;;;22.00;99.90;;;;;;5122781;27;20202;-66
2023/08/03 07:24:01;;;;;;;2.00;1.40;;;22.00;99.90;;;;;;5145961;27;20267;-66
2023/08/03 07:26:28;;;;;;;1.58;1.48;;;22.00;99.90;;;;;;5143204;27;20274;-66
2023/08/03 07:28:56;;;;;;;1.40;1.30;;;22.00;99.90;;;;;;5122968;27;20270;-65
2023/08/03 07:31:24;;;;;;;1.38;1.30;;;22.00;99.90;;;;;;5146005;27;20198;-66
2023/08/03 07:33:52;;;;;;;1.40;1.30;;;22.00;99.90;;;;;;5140455;27;20198;-66
2023/08/03 07:36:20;;;;;;;1.30;1.20;;;22.00;99.90;;;;;;5142772;27;20553;-66
2023/08/03 07:38:47;;;;;;;1.63;1.42;;;22.00;99.90;;;;;;5149344;27;20546;-66
2023/08/03 07:41:14;;;;;;;1.27;1.20;;;22.00;99.90;;;;;;5149055;27;20491;-66
2023/08/03 07:43:41;;;;;;;1.58;1.48;;;22.10;99.90;;;;;;5123529;27;20210;-66
2023/08/03 07:46:10;;;;;;;1.23;1.10;;;22.10;99.90;;;;;;5148909;27;20194;-66
2023/08/03 07:48:37;;;;;;;1.33;1.25;;;22.10;99.90;;;;;;5147395;27;20259;-67
2023/08/03 07:51:13;;;;;;;2.85;1.50;;;22.20;99.90;;;;;;5138714;27;20191;-66
2023/08/03 07:53:40;;;;;;;1.20;1.20;;;22.20;99.90;;;;;;5150383;27;20258;-66
2023/08/03 07:56:15;;;;;;;1.25;1.20;;;22.20;99.90;;;;;;5153106;27;20230;-66
2023/08/03 07:58:42;;;;;;;2.50;1.40;;;22.20;99.90;;;;;;5135630;27;20214;-65
2023/08/03 08:01:09;;;;;;;1.40;1.30;;;22.20;99.90;;;;;;5133098;27;20522;-67
2023/08/03 08:03:37;;;;;;;3.15;1.25;;;22.30;99.90;;;;;;5152589;27;20202;-67
2023/08/03 08:06:08;;;;;;;1.40;1.30;;;22.30;99.90;;;;;;5125124;27;21089;-66
2023/08/03 08:08:37;;;;;;;1.40;1.30;;;22.30;99.90;;;;;;5146731;27;20205;-66
2023/08/03 08:11:04;;;;;;;1.48;1.08;;;22.30;99.90;;;;;;5132604;27;20178;-65
2023/08/03 08:13:31;;;;;;;1.10;1.10;;;22.40;99.90;;;;;;5148157;27;20278;-66
2023/08/03 08:16:00;;;;;;;1.20;1.10;;;22.30;99.90;;;;;;5128426;27;20292;-66
2023/08/03 08:18:27;;;;;;;1.33;1.25;;;22.40;99.90;;;;;;5128789;27;20223;-66
2023/08/03 08:20:57;;;;;;;1.40;1.30;;;22.40;99.90;;;;;;5144381;27;20276;-66
2023/08/03 08:23:25;;;;;;;1.08;1.08;;;22.40;99.90;;;;;;5138881;27;20289;-66
2023/08/03 08:25:53;;;;;;;1.45;1.35;;;22.50;99.90;;;;;;5134056;27;20365;-65
2023/08/03 08:28:20;;;;;;;14.90;1.42;;;22.50;99.90;;;;;;5149233;27;20206;-65
2023/08/03 08:30:48;;;;;;;1.05;1.05;;;22.60;99.90;;;;;;5144174;27;20251;-66
2023/08/03 08:33:16;;;;;;;1.05;1.05;;;22.70;99.90;;;;;;5152699;27;20190;-66
2023/08/03 08:35:43;;;;;;;2.60;1.10;;;22.80;99.90;;;;;;5152892;27;20198;-66
2023/08/03 08:38:11;;;;;;;7.10;1.20;;;22.90;99.90;;;;;;5139238;27;20198;-67
2023/08/03 08:40:39;;;;;;;1.13;1.13;;;23.00;99.90;;;;;;5132001;27;20202;-67
2023/08/03 08:43:08;;;;;;;0.90;0.90;;;23.10;99.90;;;;;;5153251;27;20250;-67
2023/08/03 08:45:36;;;;;;;1.30;1.20;;;23.20;99.90;;;;;;5144260;27;20194;-66
2023/08/03 08:48:04;;;;;;;1.13;1.13;;;23.30;99.90;;;;;;5151923;27;20577;-66
2023/08/03 08:50:31;;;;;;;1.33;0.90;;;23.30;99.90;;;;;;5146463;27;20209;-66
2023/08/03 08:52:59;;;;;;;1.90;0.80;;;23.40;99.90;;;;;;5138914;27;20194;-66
2023/08/03 08:55:28;;;;;;;1.20;1.13;;;23.50;99.90;;;;;;5151335;27;20199;-67
2023/08/03 08:57:55;;;;;;;0.95;0.95;;;23.50;99.90;;;;;;5152357;27;20202;-66
2023/08/03 09:00:25;;;;;;;2.47;0.90;;;23.50;99.90;;;;;;5122902;27;20202;-67
2023/08/03 09:02:56;;;;;;;1.10;1.00;;;23.50;99.90;;;;;;5145260;27;20187;-66
2023/08/03 09:05:25;;;;;;;2.67;0.90;;;23.60;99.90;;;;;;5149946;27;20227;-66
2023/08/03 09:08:00;;;;;;;3.20;0.93;;;23.60;99.90;;;;;;5143583;27;20372;-65
2023/08/03 09:10:27;;;;;;;0.95;0.95;;;23.80;99.90;;;;;;5129290;27;20198;-66
2023/08/03 09:12:55;;;;;;;1.95;1.00;;;23.80;99.90;;;;;;5128013;27;20198;-65
2023/08/03 09:15:40;;;;;;;0.90;0.90;;;23.80;99.90;;;;;;5117784;27;20213;-66
2023/08/03 09:18:08;;;;;;;1.48;0.82;;;23.80;99.90;;;;;;5146502;27;20222;-65
2023/08/03 09:20:35;;;;;;;1.55;1.13;;;23.80;99.90;;;;;;5129914;27;20205;-66
2023/08/03 09:23:03;;;;;;;1.52;1.13;;;23.80;99.90;;;;;;5145313;27;20210;-65
2023/08/03 09:25:31;;;;;;;4.70;1.00;;;23.70;99.90;;;;;;5145310;27;20210;-66
2023/08/03 09:27:58;;;;;;;1.15;1.10;;;23.60;99.90;;;;;;5132764;27;20217;-65
2023/08/03 09:30:25;;;;;;;0.90;0.90;;;23.60;99.90;;;;;;5147896;27;20293;-65
2023/08/03 09:32:54;;;;;;;2.83;1.00;;;23.60;99.90;;;;;;5145022;27;20199;-66
2023/08/03 09:35:23;;;;;;;4.15;1.27;;;23.60;99.90;;;;;;5140047;27;20184;-66
2023/08/03 09:37:51;;;;;;;0.77;0.77;;;23.60;99.90;;;;;;5126254;27;20578;-65
2023/08/03 09:40:20;;;;;;;0.90;0.90;;;23.50;99.90;;;;;;5146831;27;20222;-66
2023/08/03 09:42:48;;;;;;;1.17;0.85;;;23.50;99.90;;;;;;5133466;27;20209;-66
2023/08/03 09:45:15;;;;;;;1.40;0.80;;;23.50;99.90;;;;;;5146749;27;20218;-65
2023/08/03 09:47:43;;;;;;;0.80;0.80;;;23.70;99.90;;;;;;5147134;27;20657;-66
2023/08/03 09:50:12;;;;;;;0.93;0.93;;;23.70;99.90;;;;;;5147005;27;20726;-66
2023/08/03 09:52:44;;;;;;;0.80;0.80;;;23.70;99.90;;;;;;5149228;27;20916;-66
2023/08/03 09:55:20;;;;;;;1.88;1.00;;;23.70;99.90;;;;;;5135659;27;20178;-66
2023/08/03 09:57:57;;;;;;;2.22;1.00;;;23.80;99.90;;;;;;5151713;27;20208;-67
2023/08/03 10:00:25;;;;;;;1.02;1.00;;;23.80;99.90;;;;;;5150476;27;20194;-66
2023/08/03 10:02:56;;;;;;;0.80;0.80;;;23.80;99.90;;;;;;5144102;27;20239;-67
2023/08/03 10:05:26;;;;;;;0.85;0.80;;;23.90;99.90;;;;;;5113948;27;20567;-68
2023/08/03 10:07:58;;;;;;;1.17;1.00;;;24.00;99.90;;;;;;5148183;27;20222;-68
2023/08/03 10:10:30;;;;;;;0.90;0.90;;;24.00;99.90;;;;;;5125612;27;20202;-69
2023/08/03 10:13:04;;;;;;;2.15;1.02;;;24.10;99.90;;;;;;5132891;27;20603;-67
2023/08/03 10:15:32;;;;;;;1.20;1.10;;;24.20;99.90;;;;;;5143529;27;20189;-68
2023/08/03 10:18:00;;;;;;;0.80;0.80;;;24.30;99.90;;;;;;5129307;27;20199;-67
2023/08/03 10:20:29;;;;;;;1.88;1.10;;;24.30;99.90;;;;;;5125184;27;20195;-68
2023/08/03 10:23:13;;;;;;;0.93;0.93;;;24.30;99.90;;;;;;5128467;27;20222;-67
2023/08/03 10:25:54;;;;;;;1.45;1.20;;;24.20;99.90;;;;;;5136425;27;20210;-67
2023/08/03 10:28:22;;;;;;;4.68;1.13;;;24.20;99.90;;;;;;5148889;27;20206;-67
2023/08/03 10:31:07;;;;;;;0.80;0.80;;;24.20;99.90;;;;;;5147142;27;20262;-67
2023/08/03 10:34:08;;;;;;;0.75;0.73;;;24.20;99.90;;;;;;5143079;27;20210;-67
2023/08/03 10:36:46;;;;;;;1.98;1.08;;;24.40;99.90;;;;;;5144592;27;20963;-67
2023/08/03 10:39:16;;;;;;;1.42;1.05;;;24.50;99.90;;;;;;5141314;27;20247;-65
2023/08/03 10:41:45;;;;;;;0.88;0.88;;;24.70;99.90;;;;;;5147309;27;20201;-67
2023/08/03 10:44:26;;;;;;;6.43;1.05;;;24.70;99.90;;;;;;5148314;27;20286;-67
2023/08/03 10:46:54;;;;;;;0.90;0.90;;;24.90;99.90;;;;;;5140848;27;20560;-66
2023/08/03 10:49:53;;;;;;;0.93;0.85;;;25.00;99.90;;;;;;5127203;27;20191;-66
2023/08/03 10:52:29;;;;;;;1.25;1.05;;;25.00;99.90;;;;;;5140399;27;20439;-66
2023/08/03 10:54:59;;;;;;;1.25;1.15;;;25.00;99.90;;;;;;5139279;27;20620;-67
2023/08/03 10:57:28;;;;;;;1.00;1.00;;;25.10;99.70;;;;;;5151032;27;20604;-67
2023/08/03 10:59:57;;;;;;;3.22;1.00;;;25.20;99.50;;;;;;5146308;27;20309;-66
2023/08/03 11:02:28;;;;;;;2.63;1.08;;;25.30;99.20;;;;;;5140395;27;20462;-67
2023/08/03 11:04:56;;;;;;;1.83;1.02;;;25.40;98.60;;;;;;5130188;27;20226;-67
2023/08/03 11:07:30;;;;;;;1.77;1.27;;;25.40;98.10;;;;;;5149538;27;20563;-67
2023/08/03 11:10:01;;;;;;;2.72;1.00;;;25.40;97.70;;;;;;5137801;27;20994;-67
2023/08/03 11:12:29;;;;;;;2.17;1.20;;;25.40;96.90;;;;;;5144472;27;20213;-67
2023/08/03 11:14:57;;;;;;;0.95;0.88;;;25.50;96.70;;;;;;5143931;27;20637;-66
2023/08/03 11:17:27;;;;;;;1.90;1.20;;;25.50;96.50;;;;;;5141462;27;20187;-67
2023/08/03 11:19:55;;;;;;;1.55;0.90;;;25.60;96.20;;;;;;5140090;27;20199;-67
2023/08/03 11:22:23;;;;;;;1.67;1.00;;;25.70;96.10;;;;;;5144588;27;20677;-67
2023/08/03 11:24:54;;;;;;;2.53;1.08;;;25.80;96.00;;;;;;5132774;27;21122;-67
2023/08/03 11:27:22;;;;;;;1.35;1.00;;;25.80;96.10;;;;;;5129635;27;20695;-67
2023/08/03 11:29:51;;;;;;;0.85;0.77;;;25.80;96.30;;;;;;5145134;27;20679;-67
2023/08/03 11:32:22;;;;;;;1.13;1.02;;;25.80;96.50;;;;;;5138360;27;20228;-67
2023/08/03 11:34:50;;;;;;;2.92;1.00;;;25.70;96.40;;;;;;5139068;27;20638;-67
2023/08/03 11:37:17;;;;;;;1.08;1.00;;;25.70;95.30;;;;;;5146923;27;20274;-67
2023/08/03 11:39:44;;;;;;;2.60;1.17;;;25.80;95.00;;;;;;5137563;27;20790;-66
2023/08/03 11:42:13;;;;;;;3.35;0.85;;;25.80;94.10;;;;;;5147355;27;20194;-67
2023/08/03 11:44:45;;;;;;;1.58;1.10;;;25.90;93.80;;;;;;5147899;27;20210;-67
2023/08/03 11:47:12;;;;;;;1.95;1.05;;;26.00;93.70;;;;;;5118510;27;20190;-67
2023/08/03 11:49:39;;;;;;;1.25;1.00;;;26.10;93.60;;;;;;5149338;27;20607;-66
2023/08/03 11:52:07;;;;;;;0.95;0.90;;;26.20;93.50;;;;;;5125141;27;20203;-66
2023/08/03 11:54:35;;;;;;;2.83;1.10;;;26.20;93.10;;;;;;5122691;27;20235;-67
2023/08/03 11:59:50;;;;;;;2.35;1.10;;;26.20;91.70;;;;;;5139350;27;20546;-67
2023/08/03 12:02:17;;;;;;;2.38;0.93;;;26.20;91.60;;;;;;5137230;27;22671;-67
2023/08/03 12:04:52;;;;;;;4.47;1.00;;;26.20;91.80;;;;;;5141110;27;20254;-66
2023/08/03 12:07:22;;;;;;;1.27;1.05;;;26.30;92.00;;;;;;5144348;27;20683;-66
2023/08/03 12:09:52;;;;;;;1.80;1.00;;;26.40;92.20;;;;;;5138439;27;20199;-66
2023/08/03 12:12:19;;;;;;;0.90;0.90;;;26.50;91.50;;;;;;5135379;27;20195;-66
2023/08/03 12:14:47;;;;;;;2.65;1.35;;;26.50;91.30;;;;;;5141750;27;20710;-66
2023/08/03 12:17:16;;;;;;;1.10;1.00;;;26.50;91.10;;;;;;5140003;27;20194;-67
2023/08/03 12:19:43;;;;;;;0.90;0.90;;;26.40;90.90;;;;;;5137323;27;20638;-66
2023/08/03 12:22:11;;;;;;;4.05;1.17;;;26.50;90.80;;;;;;5143448;27;20194;-67
2023/08/03 12:24:38;;;;;;;1.45;0.98;;;26.50;90.40;;;;;;5122804;27;20221;-67
2023/08/03 12:27:06;;;;;;;3.15;1.33;;;26.40;90.40;;;;;;5116757;27;20268;-66
2023/08/03 12:29:33;;;;;;;1.92;1.23;;;26.30;90.30;;;;;;5149482;27;20207;-67
2023/08/03 12:32:01;;;;;;;2.22;1.15;;;26.20;90.10;;;;;;5130550;27;20251;-66
2023/08/03 12:34:30;;;;;;;1.55;1.20;;;26.10;90.40;;;;;;5142813;27;20218;-66
2023/08/03 12:36:57;;;;;;;1.08;0.90;;;26.00;91.30;;;;;;5132208;27;20198;-66
2023/08/03 12:39:25;;;;;;;3.20;1.45;;;26.00;91.90;;;;;;5144419;27;20244;-66
2023/08/03 12:41:52;;;;;;;1.10;0.90;;;26.00;92.40;;;;;;5137378;27;20446;-66
2023/08/03 12:44:19;;;;;;;2.88;1.42;;;26.10;92.90;;;;;;5145477;27;20278;-68
2023/08/03 12:46:46;;;;;;;1.40;1.00;;;26.10;92.70;;;;;;5149183;27;20255;-67
2023/08/03 12:49:15;;;;;;;1.00;1.00;;;26.20;92.40;;;;;;5140456;27;20302;-66
2023/08/03 12:51:43;;;;;;;1.20;1.10;;;26.30;92.60;;;;;;5131655;27;20217;-67
2023/08/03 12:54:10;;;;;;;3.88;1.10;;;26.30;91.90;;;;;;5150533;27;20582;-67
2023/08/03 12:56:40;;;;;;;1.35;0.95;;;26.40;91.50;;;;;;5137737;27;20206;-66
2023/08/03 12:59:07;;;;;;;2.40;1.13;;;26.40;91.40;;;;;;5140713;27;20223;-67